createdAt,value
2019-02-20T00:02:10.272Z,10.77
2019-02-20T00:07:11.970Z,12.27
2019-02-20T00:12:13.761Z,11.53
2019-02-20T00:17:15.514Z,10.07
2019-02-20T00:22:17.355Z,12.30
2019-02-20T00:27:19.122Z,11.33
2019-02-20T00:32:20.963Z,13.37
2019-02-20T00:37:22.760Z,15.57
2019-02-20T00:42:25.079Z,13.93
2019-02-20T00:47:28.722Z,13.60
2019-02-20T00:52:32.365Z,13.10
2019-02-20T00:57:34.062Z,14.33
2019-02-20T01:02:37.358Z,13.23
2019-02-20T01:07:39.098Z,14.33
2019-02-20T01:12:41.105Z,14.27
2019-02-20T01:17:42.911Z,14.40
2019-02-20T01:22:45.431Z,15.20
2019-02-20T01:27:47.435Z,12.50
2019-02-20T01:32:49.239Z,11.67
2019-02-20T01:37:51.449Z,13.33
2019-02-20T01:42:53.594Z,14.23
2019-02-20T01:47:55.458Z,12.07
2019-02-20T01:52:57.267Z,10.73
2019-02-20T01:57:58.958Z,12.97
2019-02-20T02:03:01.065Z,14.60
2019-02-20T02:08:03.271Z,15.20
2019-02-20T02:13:05.381Z,15.97
2019-02-20T02:18:07.486Z,15.43
2019-02-20T02:23:09.689Z,12.87
2019-02-20T02:28:11.332Z,12.17
2019-02-20T02:33:13.091Z,14.60
2019-02-20T02:38:14.781Z,16.40
2019-02-20T02:43:16.572Z,15.50
2019-02-20T02:48:18.278Z,14.50
2019-02-20T02:53:30.051Z,16.63
2019-02-20T02:58:23.929Z,17.00
2019-02-20T03:03:26.643Z,17.10
2019-02-20T03:08:28.944Z,17.63
2019-02-20T03:13:30.741Z,15.90
2019-02-20T03:18:33.038Z,14.53
2019-02-20T03:23:40.109Z,13.63
2019-02-20T03:28:40.202Z,12.50
2019-02-20T03:33:42.848Z,12.93
2019-02-20T03:38:44.650Z,12.93
2019-02-20T03:43:46.442Z,11.80
2019-02-20T03:48:48.704Z,10.87
2019-02-20T03:53:51.859Z,12.00
2019-02-20T03:58:54.004Z,12.37
2019-02-20T04:03:55.910Z,12.63
2019-02-20T04:08:57.916Z,8.97
2019-02-20T04:13:59.756Z,11.73
2019-02-20T04:19:02.223Z,10.90
2019-02-20T04:24:04.106Z,10.43
2019-02-20T04:29:06.623Z,10.50
2019-02-20T04:34:09.241Z,12.10
2019-02-20T04:39:11.033Z,13.57
2019-02-20T04:44:13.145Z,9.83
2019-02-20T04:49:15.148Z,10.13
2019-02-20T04:54:16.965Z,12.47
2019-02-20T04:59:19.160Z,11.10
2019-02-20T05:04:21.270Z,8.70
2019-02-20T05:09:23.073Z,9.87
2019-02-20T05:14:25.111Z,11.30
2019-02-20T05:19:26.882Z,10.53
2019-02-20T05:24:28.689Z,7.47
2019-02-20T05:29:30.486Z,10.83
2019-02-20T05:34:32.231Z,10.10
2019-02-20T05:39:34.075Z,8.43
2019-02-20T05:44:35.865Z,8.63
2019-02-20T05:49:37.663Z,9.40
2019-02-20T05:54:39.880Z,10.40
2019-02-20T05:59:42.188Z,10.83
2019-02-20T06:04:44.284Z,9.33
2019-02-20T06:09:46.040Z,8.67
2019-02-20T06:14:48.207Z,8.93
2019-02-20T06:19:49.999Z,9.60
2019-02-20T06:24:51.770Z,8.50
2019-02-20T06:29:53.591Z,9.23
2019-02-20T06:35:00.302Z,8.53
2019-02-20T06:40:03.030Z,10.00
2019-02-20T06:45:07.839Z,7.77
2019-02-20T06:50:10.938Z,9.40
2019-02-20T06:55:12.832Z,9.27
2019-02-20T07:00:14.626Z,10.90
2019-02-20T07:05:36.817Z,10.27
2019-02-20T07:10:51.839Z,11.83
2019-02-20T07:16:09.887Z,13.07
2019-02-20T07:21:34.740Z,11.27
2019-02-20T07:26:55.773Z,10.87
2019-02-20T07:31:57.466Z,10.90
2019-02-20T07:36:59.259Z,9.50
2019-02-20T07:42:06.578Z,10.50
2019-02-20T07:47:08.367Z,10.23
2019-02-20T07:52:10.678Z,10.90
2019-02-20T07:57:12.749Z,9.53
2019-02-20T08:02:14.438Z,9.27
2019-02-20T08:07:16.645Z,10.20
2019-02-20T08:12:18.430Z,10.10
2019-02-20T08:17:20.237Z,10.93
2019-02-20T08:22:22.741Z,11.63
2019-02-20T08:27:24.753Z,10.23
2019-02-20T08:32:26.546Z,12.73
2019-02-20T08:37:28.302Z,9.83
2019-02-20T08:42:30.051Z,10.60
2019-02-20T08:47:31.844Z,11.03
2019-02-20T08:52:33.994Z,9.43
2019-02-20T08:57:35.753Z,9.30
2019-02-20T09:02:38.327Z,9.57
2019-02-20T09:07:40.420Z,9.27
2019-02-20T09:12:42.222Z,8.67
2019-02-20T09:17:44.024Z,7.97
2019-02-20T09:22:46.031Z,7.37
2019-02-20T09:27:47.939Z,11.20
2019-02-20T09:32:49.724Z,8.83
2019-02-20T09:37:51.475Z,9.67
2019-02-20T09:42:53.965Z,7.63
2019-02-20T09:47:56.403Z,10.17
2019-02-20T09:52:58.177Z,9.93
2019-02-20T09:57:59.985Z,10.20
2019-02-20T10:03:01.787Z,10.47
2019-02-20T10:08:04.560Z,10.73
2019-02-20T10:13:06.829Z,11.03
2019-02-20T10:18:08.555Z,11.73
2019-02-20T10:23:10.428Z,11.70
2019-02-20T10:28:12.228Z,9.47
2019-02-20T10:33:14.450Z,10.70
2019-02-20T10:38:16.251Z,9.67
2019-02-20T10:43:18.258Z,9.40
2019-02-20T10:48:20.063Z,10.33
2019-02-20T10:53:21.800Z,11.07
2019-02-20T10:58:23.576Z,9.67
2019-02-20T11:03:25.227Z,8.80
2019-02-20T11:08:27.610Z,10.87
2019-02-20T11:13:29.482Z,11.20
2019-02-20T11:18:31.665Z,11.00
2019-02-20T11:23:33.469Z,10.53
2019-02-20T11:28:35.864Z,11.17
2019-02-20T11:33:37.657Z,12.93
2019-02-20T11:38:39.439Z,12.27
2019-02-20T11:43:41.460Z,11.57
2019-02-20T11:48:43.239Z,13.93
2019-02-20T11:53:46.137Z,12.93
2019-02-20T11:58:48.054Z,15.13
2019-02-20T12:03:49.759Z,13.47
2019-02-20T12:08:51.734Z,15.37
2019-02-20T12:13:53.629Z,17.33
2019-02-20T12:18:55.424Z,18.30
2019-02-20T12:23:57.579Z,18.47
2019-02-20T12:28:59.945Z,21.17
2019-02-20T12:34:02.073Z,20.20
2019-02-20T12:39:04.581Z,24.97
2019-02-20T12:44:06.478Z,24.70
2019-02-20T12:49:08.231Z,26.33
2019-02-20T12:54:10.060Z,21.67
2019-02-20T12:59:11.867Z,24.00
2019-02-20T13:04:13.558Z,21.50
2019-02-20T13:09:18.672Z,23.27
2019-02-20T13:14:20.802Z,23.30
2019-02-20T13:19:22.748Z,25.40
2019-02-20T13:24:24.962Z,22.67
2019-02-20T13:29:26.765Z,26.47
2019-02-20T13:34:28.769Z,25.40
2019-02-20T13:39:31.178Z,25.23
2019-02-20T13:44:33.721Z,30.17
2019-02-20T13:49:40.281Z,31.07
2019-02-20T13:54:46.958Z,29.77
2019-02-20T13:59:49.057Z,33.93
2019-02-20T14:04:50.732Z,40.07
2019-02-20T14:09:52.944Z,35.77
2019-02-20T14:14:55.675Z,36.23
2019-02-20T14:19:57.444Z,35.13
2019-02-20T14:24:59.312Z,31.33
2019-02-20T14:30:01.237Z,33.80
2019-02-20T14:35:03.354Z,35.13
2019-02-20T14:40:06.981Z,33.93
2019-02-20T14:45:14.500Z,34.30
2019-02-20T14:50:16.763Z,34.37
2019-02-20T14:55:18.523Z,34.50
2019-02-20T15:00:21.526Z,34.53
2019-02-20T15:05:32.085Z,41.17
2019-02-20T15:10:37.791Z,43.93
2019-02-20T15:15:40.077Z,45.10
2019-02-20T15:20:41.883Z,44.53
2019-02-20T15:25:43.645Z,35.70
2019-02-20T15:30:45.372Z,40.23
2019-02-20T15:35:47.567Z,44.70
2019-02-20T15:40:49.760Z,37.00
2019-02-20T15:45:52.572Z,43.17
2019-02-20T15:50:54.322Z,49.00
2019-02-20T15:55:56.180Z,48.90
2019-02-20T16:00:57.967Z,48.23
2019-02-20T16:05:59.761Z,54.67
2019-02-20T16:11:01.989Z,48.00
2019-02-20T16:16:04.108Z,47.63
2019-02-20T16:21:05.887Z,53.57
2019-02-20T16:26:07.652Z,53.53
2019-02-20T16:31:09.498Z,46.17
2019-02-20T16:36:11.278Z,53.10
2019-02-20T16:41:15.197Z,46.57
2019-02-20T16:46:17.394Z,55.00
2019-02-20T16:51:19.255Z,50.80
2019-02-20T16:56:21.061Z,56.60
2019-02-20T17:01:23.120Z,57.50
2019-02-20T17:06:24.848Z,55.67
2019-02-20T17:11:26.871Z,59.20
2019-02-20T17:16:29.068Z,53.07
2019-02-20T17:21:31.156Z,50.37
2019-02-20T17:26:33.272Z,61.93
2019-02-20T17:31:35.703Z,54.10
2019-02-20T17:36:41.599Z,54.77
2019-02-20T17:41:43.671Z,48.37
2019-02-20T17:46:45.863Z,54.53
2019-02-20T17:51:47.621Z,48.77
2019-02-20T17:56:49.491Z,31.13
2019-02-20T18:01:51.752Z,58.40
2019-02-20T18:06:53.545Z,57.43
2019-02-20T18:11:55.993Z,50.37
2019-02-20T18:16:58.307Z,54.17
2019-02-20T18:22:01.733Z,56.00
2019-02-20T18:27:04.274Z,52.90
2019-02-20T18:32:06.232Z,53.37
2019-02-20T18:37:08.185Z,64.80
2019-02-20T18:42:10.329Z,64.53
2019-02-20T18:47:12.762Z,56.70
2019-02-20T18:52:14.846Z,55.80
2019-02-20T18:57:16.769Z,52.90
2019-02-20T19:02:18.713Z,49.63
2019-02-20T19:07:20.666Z,53.27
2019-02-20T19:12:44.795Z,54.23
2019-02-20T19:18:11.210Z,49.40
2019-02-20T19:23:46.044Z,59.70
2019-02-20T19:29:16.741Z,62.57
2019-02-20T19:34:22.367Z,51.50
2019-02-20T19:39:28.330Z,60.23
2019-02-20T19:44:43.135Z,52.27
2019-02-20T19:49:55.087Z,54.33
2019-02-20T19:55:17.743Z,52.50
2019-02-20T20:00:30.329Z,53.07
2019-02-20T20:05:54.145Z,48.40
2019-02-20T20:11:08.395Z,52.73
2019-02-20T20:16:20.406Z,49.00
2019-02-20T20:21:35.627Z,44.50
2019-02-20T20:26:47.249Z,45.20
2019-02-20T20:31:56.217Z,53.33
2019-02-20T20:37:04.411Z,47.47
2019-02-20T20:42:19.562Z,45.33
2019-02-20T20:47:34.368Z,49.70
2019-02-20T20:52:50.572Z,42.60
2019-02-20T20:58:10.149Z,42.53
2019-02-20T21:03:16.549Z,44.90
2019-02-20T21:08:24.707Z,50.40
2019-02-20T21:13:51.700Z,47.23
2019-02-20T21:19:21.214Z,40.40
2019-02-20T21:24:27.086Z,42.20
2019-02-20T21:29:47.205Z,40.03
2019-02-20T21:34:59.247Z,45.70
2019-02-20T21:40:13.946Z,44.73
2019-02-20T21:45:41.033Z,42.63
2019-02-20T21:51:06.059Z,39.47
2019-02-20T21:56:26.106Z,46.37
2019-02-20T22:01:43.096Z,35.40
2019-02-20T22:07:00.298Z,42.27
2019-02-20T22:12:14.293Z,35.50
2019-02-20T22:17:36.011Z,39.53
2019-02-20T22:22:53.246Z,36.60
2019-02-20T22:27:58.321Z,38.20
2019-02-20T22:33:10.058Z,34.33
2019-02-20T22:38:31.973Z,30.40
2019-02-20T22:43:43.189Z,37.07
2019-02-20T22:48:54.220Z,37.13
2019-02-20T22:54:14.888Z,36.57
2019-02-20T22:59:44.277Z,35.47
2019-02-20T23:04:57.709Z,35.13
2019-02-20T23:10:19.161Z,36.50
2019-02-20T23:15:20.441Z,35.47
2019-02-20T23:20:21.672Z,40.40
2019-02-20T23:25:25.547Z,34.93
2019-02-20T23:30:26.939Z,39.20
2019-02-20T23:35:28.261Z,42.03
2019-02-20T23:40:29.900Z,38.80
2019-02-20T23:45:31.211Z,45.00
2019-02-20T23:50:32.900Z,42.13
2019-02-20T23:55:34.648Z,42.37
